sensor_id;sensor_type;location;lat;lon;timestamp;P1;durP1;ratioP1;P2;durP2;ratioP2
24873;SDS011;12945;42.648;23.370;2022-07-12T00:01:17;6.75;;;2.35;;
24873;SDS011;12945;42.648;23.370;2022-07-12T00:03:42;10.15;;;2.60;;
24873;SDS011;12945;42.648;23.370;2022-07-12T00:06:07;4.28;;;2.17;;
24873;SDS011;12945;42.648;23.370;2022-07-12T00:08:33;8.20;;;2.20;;
24873;SDS011;12945;42.648;23.370;2022-07-12T00:10:58;3.35;;;2.28;;
24873;SDS011;12945;42.648;23.370;2022-07-12T00:13:23;4.18;;;2.08;;
24873;SDS011;12945;42.648;23.370;2022-07-12T00:15:49;3.90;;;2.20;;
24873;SDS011;12945;42.648;23.370;2022-07-12T00:18:14;4.05;;;2.53;;
24873;SDS011;12945;42.648;23.370;2022-07-12T00:20:39;4.40;;;2.42;;
24873;SDS011;12945;42.648;23.370;2022-07-12T00:23:04;2.83;;;2.17;;
24873;SDS011;12945;42.648;23.370;2022-07-12T00:25:30;4.60;;;2.10;;
24873;SDS011;12945;42.648;23.370;2022-07-12T00:27:55;4.53;;;2.70;;
24873;SDS011;12945;42.648;23.370;2022-07-12T00:30:21;5.85;;;2.40;;
24873;SDS011;12945;42.648;23.370;2022-07-12T00:32:46;6.35;;;2.63;;
24873;SDS011;12945;42.648;23.370;2022-07-12T00:35:12;11.98;;;2.67;;
24873;SDS011;12945;42.648;23.370;2022-07-12T00:37:38;4.18;;;2.70;;
24873;SDS011;12945;42.648;23.370;2022-07-12T00:40:07;5.43;;;2.67;;
24873;SDS011;12945;42.648;23.370;2022-07-12T00:42:33;2.88;;;2.47;;
24873;SDS011;12945;42.648;23.370;2022-07-12T00:44:59;7.85;;;3.20;;
24873;SDS011;12945;42.648;23.370;2022-07-12T00:47:32;4.53;;;2.70;;
24873;SDS011;12945;42.648;23.370;2022-07-12T00:50:02;7.53;;;2.95;;
24873;SDS011;12945;42.648;23.370;2022-07-12T00:52:28;6.80;;;2.72;;
24873;SDS011;12945;42.648;23.370;2022-07-12T00:54:53;5.72;;;3.00;;
24873;SDS011;12945;42.648;23.370;2022-07-12T00:57:18;13.00;;;3.30;;
24873;SDS011;12945;42.648;23.370;2022-07-12T00:59:44;4.68;;;2.92;;
24873;SDS011;12945;42.648;23.370;2022-07-12T01:02:09;6.70;;;3.20;;
24873;SDS011;12945;42.648;23.370;2022-07-12T01:04:34;5.35;;;2.80;;
24873;SDS011;12945;42.648;23.370;2022-07-12T01:07:00;5.65;;;2.70;;
24873;SDS011;12945;42.648;23.370;2022-07-12T01:09:26;4.43;;;2.50;;
24873;SDS011;12945;42.648;23.370;2022-07-12T01:11:51;10.07;;;2.80;;
24873;SDS011;12945;42.648;23.370;2022-07-12T01:14:17;8.23;;;3.13;;
24873;SDS011;12945;42.648;23.370;2022-07-12T01:16:42;4.88;;;3.05;;
24873;SDS011;12945;42.648;23.370;2022-07-12T01:19:08;5.30;;;2.83;;
24873;SDS011;12945;42.648;23.370;2022-07-12T01:21:35;7.63;;;3.00;;
24873;SDS011;12945;42.648;23.370;2022-07-12T01:24:02;5.05;;;2.63;;
24873;SDS011;12945;42.648;23.370;2022-07-12T01:26:28;6.68;;;3.20;;
24873;SDS011;12945;42.648;23.370;2022-07-12T01:28:53;4.60;;;2.95;;
24873;SDS011;12945;42.648;23.370;2022-07-12T01:31:18;6.20;;;3.00;;
24873;SDS011;12945;42.648;23.370;2022-07-12T01:33:44;8.00;;;3.25;;
24873;SDS011;12945;42.648;23.370;2022-07-12T01:36:09;9.13;;;2.90;;
24873;SDS011;12945;42.648;23.370;2022-07-12T01:38:34;8.07;;;3.03;;
24873;SDS011;12945;42.648;23.370;2022-07-12T01:41:00;5.90;;;3.00;;
24873;SDS011;12945;42.648;23.370;2022-07-12T01:43:25;6.57;;;2.70;;
24873;SDS011;12945;42.648;23.370;2022-07-12T01:45:51;5.43;;;2.75;;
24873;SDS011;12945;42.648;23.370;2022-07-12T01:48:16;7.18;;;2.95;;
24873;SDS011;12945;42.648;23.370;2022-07-12T01:50:42;5.53;;;2.63;;
24873;SDS011;12945;42.648;23.370;2022-07-12T01:53:07;5.40;;;2.78;;
24873;SDS011;12945;42.648;23.370;2022-07-12T01:55:32;8.35;;;2.58;;
24873;SDS011;12945;42.648;23.370;2022-07-12T01:57:58;4.32;;;2.50;;
24873;SDS011;12945;42.648;23.370;2022-07-12T02:00:23;5.72;;;2.67;;
24873;SDS011;12945;42.648;23.370;2022-07-12T02:02:50;3.83;;;2.28;;
24873;SDS011;12945;42.648;23.370;2022-07-12T02:05:15;6.43;;;2.50;;
24873;SDS011;12945;42.648;23.370;2022-07-12T02:07:41;8.93;;;2.80;;
24873;SDS011;12945;42.648;23.370;2022-07-12T02:10:07;3.67;;;2.20;;
24873;SDS011;12945;42.648;23.370;2022-07-12T02:12:32;4.63;;;2.50;;
24873;SDS011;12945;42.648;23.370;2022-07-12T02:14:58;6.05;;;2.50;;
24873;SDS011;12945;42.648;23.370;2022-07-12T02:17:23;5.60;;;2.30;;
24873;SDS011;12945;42.648;23.370;2022-07-12T02:19:48;3.10;;;2.13;;
24873;SDS011;12945;42.648;23.370;2022-07-12T02:22:14;3.22;;;2.03;;
24873;SDS011;12945;42.648;23.370;2022-07-12T02:24:39;4.45;;;2.25;;
24873;SDS011;12945;42.648;23.370;2022-07-12T02:27:04;6.53;;;2.70;;
24873;SDS011;12945;42.648;23.370;2022-07-12T02:29:30;6.60;;;2.20;;
24873;SDS011;12945;42.648;23.370;2022-07-12T02:31:55;4.68;;;2.40;;
24873;SDS011;12945;42.648;23.370;2022-07-12T02:34:20;6.13;;;2.30;;
24873;SDS011;12945;42.648;23.370;2022-07-12T02:36:46;2.90;;;2.15;;
24873;SDS011;12945;42.648;23.370;2022-07-12T02:39:11;4.38;;;2.40;;
24873;SDS011;12945;42.648;23.370;2022-07-12T02:41:37;4.47;;;2.13;;
24873;SDS011;12945;42.648;23.370;2022-07-12T02:44:02;4.45;;;2.50;;
24873;SDS011;12945;42.648;23.370;2022-07-12T02:46:27;3.63;;;2.30;;
24873;SDS011;12945;42.648;23.370;2022-07-12T02:48:53;4.22;;;2.38;;
24873;SDS011;12945;42.648;23.370;2022-07-12T02:51:18;4.93;;;2.47;;
24873;SDS011;12945;42.648;23.370;2022-07-12T02:53:44;4.85;;;3.00;;
24873;SDS011;12945;42.648;23.370;2022-07-12T02:56:09;8.05;;;3.08;;
24873;SDS011;12945;42.648;23.370;2022-07-12T02:58:35;8.10;;;3.10;;
24873;SDS011;12945;42.648;23.370;2022-07-12T03:01:00;8.75;;;4.82;;
24873;SDS011;12945;42.648;23.370;2022-07-12T03:03:25;13.18;;;7.70;;
24873;SDS011;12945;42.648;23.370;2022-07-12T03:05:51;14.27;;;8.27;;
24873;SDS011;12945;42.648;23.370;2022-07-12T03:08:16;22.92;;;10.30;;
24873;SDS011;12945;42.648;23.370;2022-07-12T03:10:41;16.25;;;8.23;;
24873;SDS011;12945;42.648;23.370;2022-07-12T03:13:07;18.65;;;8.30;;
24873;SDS011;12945;42.648;23.370;2022-07-12T03:15:32;11.48;;;6.97;;
24873;SDS011;12945;42.648;23.370;2022-07-12T03:17:58;11.57;;;5.15;;
24873;SDS011;12945;42.648;23.370;2022-07-12T03:20:24;13.30;;;4.90;;
24873;SDS011;12945;42.648;23.370;2022-07-12T03:22:50;14.55;;;4.38;;
24873;SDS011;12945;42.648;23.370;2022-07-12T03:25:17;14.50;;;5.63;;
24873;SDS011;12945;42.648;23.370;2022-07-12T03:27:42;11.55;;;5.38;;
24873;SDS011;12945;42.648;23.370;2022-07-12T03:30:07;12.88;;;5.63;;
24873;SDS011;12945;42.648;23.370;2022-07-12T03:32:33;22.77;;;6.57;;
24873;SDS011;12945;42.648;23.370;2022-07-12T03:34:59;16.13;;;6.00;;
24873;SDS011;12945;42.648;23.370;2022-07-12T03:37:24;8.25;;;3.40;;
24873;SDS011;12945;42.648;23.370;2022-07-12T03:39:49;4.25;;;2.92;;
24873;SDS011;12945;42.648;23.370;2022-07-12T03:42:15;9.32;;;3.25;;
24873;SDS011;12945;42.648;23.370;2022-07-12T03:44:40;10.00;;;3.42;;
24873;SDS011;12945;42.648;23.370;2022-07-12T03:47:06;8.05;;;3.78;;
24873;SDS011;12945;42.648;23.370;2022-07-12T03:49:31;6.00;;;3.03;;
24873;SDS011;12945;42.648;23.370;2022-07-12T03:51:56;6.75;;;3.58;;
24873;SDS011;12945;42.648;23.370;2022-07-12T03:54:22;7.97;;;3.30;;
24873;SDS011;12945;42.648;23.370;2022-07-12T03:56:47;9.70;;;3.67;;
24873;SDS011;12945;42.648;23.370;2022-07-12T03:59:31;8.32;;;3.80;;
24873;SDS011;12945;42.648;23.370;2022-07-12T04:01:56;10.27;;;3.95;;
24873;SDS011;12945;42.648;23.370;2022-07-12T04:04:21;12.48;;;3.90;;
24873;SDS011;12945;42.648;23.370;2022-07-12T04:06:47;7.55;;;3.67;;
24873;SDS011;12945;42.648;23.370;2022-07-12T04:09:12;9.68;;;3.28;;
24873;SDS011;12945;42.648;23.370;2022-07-12T04:11:38;10.05;;;3.45;;
24873;SDS011;12945;42.648;23.370;2022-07-12T04:14:03;8.18;;;3.88;;
24873;SDS011;12945;42.648;23.370;2022-07-12T04:16:28;12.02;;;3.78;;
24873;SDS011;12945;42.648;23.370;2022-07-12T04:18:55;16.25;;;4.10;;
24873;SDS011;12945;42.648;23.370;2022-07-12T04:21:20;6.13;;;2.80;;
24873;SDS011;12945;42.648;23.370;2022-07-12T04:23:45;8.30;;;2.83;;
24873;SDS011;12945;42.648;23.370;2022-07-12T04:26:11;5.65;;;2.65;;
24873;SDS011;12945;42.648;23.370;2022-07-12T04:28:36;5.50;;;2.38;;
24873;SDS011;12945;42.648;23.370;2022-07-12T04:31:02;7.22;;;2.70;;
24873;SDS011;12945;42.648;23.370;2022-07-12T04:33:27;7.38;;;2.70;;
24873;SDS011;12945;42.648;23.370;2022-07-12T04:35:52;7.43;;;2.70;;
24873;SDS011;12945;42.648;23.370;2022-07-12T04:38:18;4.15;;;2.60;;
24873;SDS011;12945;42.648;23.370;2022-07-12T04:40:43;9.30;;;2.60;;
24873;SDS011;12945;42.648;23.370;2022-07-12T04:43:08;10.30;;;2.80;;
24873;SDS011;12945;42.648;23.370;2022-07-12T04:45:33;9.00;;;2.80;;
24873;SDS011;12945;42.648;23.370;2022-07-12T04:47:59;5.30;;;2.78;;
24873;SDS011;12945;42.648;23.370;2022-07-12T04:50:24;8.18;;;2.85;;
24873;SDS011;12945;42.648;23.370;2022-07-12T04:52:49;5.55;;;2.67;;
24873;SDS011;12945;42.648;23.370;2022-07-12T04:55:15;6.70;;;2.97;;
24873;SDS011;12945;42.648;23.370;2022-07-12T04:57:40;9.40;;;2.90;;
24873;SDS011;12945;42.648;23.370;2022-07-12T05:00:06;10.18;;;3.33;;
24873;SDS011;12945;42.648;23.370;2022-07-12T05:02:32;10.55;;;3.75;;
24873;SDS011;12945;42.648;23.370;2022-07-12T05:04:57;5.57;;;3.08;;
24873;SDS011;12945;42.648;23.370;2022-07-12T05:07:23;7.28;;;3.58;;
24873;SDS011;12945;42.648;23.370;2022-07-12T05:09:48;11.05;;;3.72;;
24873;SDS011;12945;42.648;23.370;2022-07-12T05:12:13;7.93;;;3.75;;
24873;SDS011;12945;42.648;23.370;2022-07-12T05:14:39;11.07;;;3.47;;
24873;SDS011;12945;42.648;23.370;2022-07-12T05:17:04;7.40;;;3.60;;
24873;SDS011;12945;42.648;23.370;2022-07-12T05:19:30;15.32;;;3.67;;
24873;SDS011;12945;42.648;23.370;2022-07-12T05:21:55;11.90;;;4.50;;
24873;SDS011;12945;42.648;23.370;2022-07-12T05:24:21;14.02;;;4.35;;
24873;SDS011;12945;42.648;23.370;2022-07-12T05:26:46;9.55;;;3.47;;
24873;SDS011;12945;42.648;23.370;2022-07-12T05:29:11;11.52;;;3.45;;
24873;SDS011;12945;42.648;23.370;2022-07-12T05:31:37;9.80;;;3.42;;
24873;SDS011;12945;42.648;23.370;2022-07-12T05:34:02;9.35;;;4.95;;
24873;SDS011;12945;42.648;23.370;2022-07-12T05:36:27;21.08;;;4.25;;
24873;SDS011;12945;42.648;23.370;2022-07-12T05:38:53;8.55;;;3.80;;
24873;SDS011;12945;42.648;23.370;2022-07-12T05:41:18;14.30;;;3.97;;
24873;SDS011;12945;42.648;23.370;2022-07-12T05:43:44;10.18;;;4.03;;
24873;SDS011;12945;42.648;23.370;2022-07-12T05:46:09;11.48;;;4.20;;
24873;SDS011;12945;42.648;23.370;2022-07-12T05:48:35;9.45;;;3.75;;
24873;SDS011;12945;42.648;23.370;2022-07-12T05:51:00;10.65;;;4.50;;
24873;SDS011;12945;42.648;23.370;2022-07-12T05:53:45;21.90;;;4.70;;
24873;SDS011;12945;42.648;23.370;2022-07-12T05:56:11;12.63;;;3.85;;
24873;SDS011;12945;42.648;23.370;2022-07-12T05:58:36;12.60;;;3.97;;
24873;SDS011;12945;42.648;23.370;2022-07-12T06:01:01;8.23;;;4.30;;
24873;SDS011;12945;42.648;23.370;2022-07-12T06:03:26;9.68;;;4.18;;
24873;SDS011;12945;42.648;23.370;2022-07-12T06:05:52;13.23;;;4.05;;
24873;SDS011;12945;42.648;23.370;2022-07-12T06:08:17;9.07;;;4.03;;
24873;SDS011;12945;42.648;23.370;2022-07-12T06:10:42;10.35;;;3.90;;
24873;SDS011;12945;42.648;23.370;2022-07-12T06:13:08;14.50;;;3.97;;
24873;SDS011;12945;42.648;23.370;2022-07-12T06:15:34;10.38;;;4.20;;
24873;SDS011;12945;42.648;23.370;2022-07-12T06:18:00;12.73;;;4.40;;
24873;SDS011;12945;42.648;23.370;2022-07-12T06:20:25;18.67;;;5.10;;
24873;SDS011;12945;42.648;23.370;2022-07-12T06:22:51;14.40;;;4.50;;
24873;SDS011;12945;42.648;23.370;2022-07-12T06:25:16;11.73;;;4.30;;
24873;SDS011;12945;42.648;23.370;2022-07-12T06:27:41;15.43;;;4.18;;
24873;SDS011;12945;42.648;23.370;2022-07-12T06:30:07;9.85;;;3.88;;
24873;SDS011;12945;42.648;23.370;2022-07-12T06:32:32;9.40;;;3.55;;
24873;SDS011;12945;42.648;23.370;2022-07-12T06:34:58;9.55;;;3.95;;
24873;SDS011;12945;42.648;23.370;2022-07-12T06:37:23;10.07;;;3.33;;
24873;SDS011;12945;42.648;23.370;2022-07-12T06:39:48;10.25;;;3.40;;
24873;SDS011;12945;42.648;23.370;2022-07-12T06:42:14;12.50;;;3.97;;
24873;SDS011;12945;42.648;23.370;2022-07-12T06:44:39;6.70;;;3.70;;
24873;SDS011;12945;42.648;23.370;2022-07-12T06:47:04;8.60;;;3.25;;
24873;SDS011;12945;42.648;23.370;2022-07-12T06:49:30;14.85;;;3.13;;
24873;SDS011;12945;42.648;23.370;2022-07-12T06:51:55;8.45;;;2.90;;
24873;SDS011;12945;42.648;23.370;2022-07-12T06:54:20;8.32;;;2.65;;
24873;SDS011;12945;42.648;23.370;2022-07-12T06:56:46;5.97;;;2.30;;
24873;SDS011;12945;42.648;23.370;2022-07-12T06:59:11;7.60;;;2.75;;
24873;SDS011;12945;42.648;23.370;2022-07-12T07:01:37;10.05;;;1.60;;
24873;SDS011;12945;42.648;23.370;2022-07-12T07:04:02;5.07;;;1.95;;
24873;SDS011;12945;42.648;23.370;2022-07-12T07:06:27;6.43;;;2.08;;
24873;SDS011;12945;42.648;23.370;2022-07-12T07:08:53;11.25;;;2.20;;
24873;SDS011;12945;42.648;23.370;2022-07-12T07:11:18;11.43;;;2.78;;
24873;SDS011;12945;42.648;23.370;2022-07-12T07:13:43;8.57;;;2.58;;
24873;SDS011;12945;42.648;23.370;2022-07-12T07:16:09;6.30;;;2.22;;
24873;SDS011;12945;42.648;23.370;2022-07-12T07:18:34;8.40;;;2.53;;
24873;SDS011;12945;42.648;23.370;2022-07-12T07:20:59;12.05;;;3.25;;
24873;SDS011;12945;42.648;23.370;2022-07-12T07:23:24;8.75;;;2.42;;
24873;SDS011;12945;42.648;23.370;2022-07-12T07:25:50;9.48;;;2.25;;
24873;SDS011;12945;42.648;23.370;2022-07-12T07:28:15;7.40;;;2.20;;
24873;SDS011;12945;42.648;23.370;2022-07-12T07:30:40;13.63;;;2.10;;
24873;SDS011;12945;42.648;23.370;2022-07-12T07:33:24;13.93;;;2.20;;
24873;SDS011;12945;42.648;23.370;2022-07-12T07:35:50;12.05;;;1.95;;
24873;SDS011;12945;42.648;23.370;2022-07-12T07:38:18;7.50;;;2.67;;
24873;SDS011;12945;42.648;23.370;2022-07-12T07:40:44;8.57;;;1.70;;
24873;SDS011;12945;42.648;23.370;2022-07-12T07:43:09;11.48;;;1.70;;
24873;SDS011;12945;42.648;23.370;2022-07-12T07:45:35;4.80;;;1.60;;
24873;SDS011;12945;42.648;23.370;2022-07-12T07:48:00;7.63;;;1.55;;
24873;SDS011;12945;42.648;23.370;2022-07-12T07:50:26;6.38;;;1.60;;
24873;SDS011;12945;42.648;23.370;2022-07-12T07:52:51;6.65;;;1.90;;
24873;SDS011;12945;42.648;23.370;2022-07-12T07:55:17;6.47;;;1.83;;
24873;SDS011;12945;42.648;23.370;2022-07-12T07:57:42;6.80;;;1.50;;
24873;SDS011;12945;42.648;23.370;2022-07-12T08:00:08;7.15;;;1.42;;
24873;SDS011;12945;42.648;23.370;2022-07-12T08:02:33;4.00;;;1.63;;
24873;SDS011;12945;42.648;23.370;2022-07-12T08:04:59;7.40;;;1.70;;
24873;SDS011;12945;42.648;23.370;2022-07-12T08:07:24;8.68;;;1.48;;
24873;SDS011;12945;42.648;23.370;2022-07-12T08:09:49;9.52;;;1.60;;
24873;SDS011;12945;42.648;23.370;2022-07-12T08:12:15;9.98;;;1.40;;
24873;SDS011;12945;42.648;23.370;2022-07-12T08:14:40;7.47;;;1.52;;
24873;SDS011;12945;42.648;23.370;2022-07-12T08:17:05;4.10;;;1.23;;
24873;SDS011;12945;42.648;23.370;2022-07-12T08:19:30;14.02;;;2.20;;
24873;SDS011;12945;42.648;23.370;2022-07-12T08:21:56;5.32;;;1.42;;
24873;SDS011;12945;42.648;23.370;2022-07-12T08:24:21;7.60;;;1.58;;
24873;SDS011;12945;42.648;23.370;2022-07-12T08:26:46;4.82;;;1.50;;
24873;SDS011;12945;42.648;23.370;2022-07-12T08:29:12;4.35;;;1.13;;
24873;SDS011;12945;42.648;23.370;2022-07-12T08:31:37;5.90;;;1.60;;
24873;SDS011;12945;42.648;23.370;2022-07-12T08:34:02;3.22;;;1.33;;
24873;SDS011;12945;42.648;23.370;2022-07-12T08:36:28;5.50;;;1.40;;
24873;SDS011;12945;42.648;23.370;2022-07-12T08:38:53;5.53;;;1.35;;
24873;SDS011;12945;42.648;23.370;2022-07-12T08:41:18;11.77;;;1.88;;
24873;SDS011;12945;42.648;23.370;2022-07-12T08:43:44;13.25;;;3.25;;
24873;SDS011;12945;42.648;23.370;2022-07-12T08:46:10;6.32;;;2.45;;
24873;SDS011;12945;42.648;23.370;2022-07-12T08:48:35;7.55;;;2.20;;
24873;SDS011;12945;42.648;23.370;2022-07-12T08:51:02;9.27;;;1.90;;
24873;SDS011;12945;42.648;23.370;2022-07-12T08:53:28;6.88;;;1.85;;
24873;SDS011;12945;42.648;23.370;2022-07-12T08:55:53;9.02;;;1.65;;
24873;SDS011;12945;42.648;23.370;2022-07-12T08:58:18;6.18;;;1.60;;
24873;SDS011;12945;42.648;23.370;2022-07-12T09:00:44;5.50;;;1.60;;
24873;SDS011;12945;42.648;23.370;2022-07-12T09:03:10;3.80;;;1.20;;
24873;SDS011;12945;42.648;23.370;2022-07-12T09:05:37;3.22;;;1.27;;
24873;SDS011;12945;42.648;23.370;2022-07-12T09:08:03;4.38;;;1.40;;
24873;SDS011;12945;42.648;23.370;2022-07-12T09:10:29;6.68;;;1.50;;
24873;SDS011;12945;42.648;23.370;2022-07-12T09:12:54;7.78;;;1.60;;
24873;SDS011;12945;42.648;23.370;2022-07-12T09:15:20;2.97;;;1.23;;
24873;SDS011;12945;42.648;23.370;2022-07-12T09:17:47;2.97;;;1.35;;
24873;SDS011;12945;42.648;23.370;2022-07-12T09:20:19;10.85;;;1.60;;
24873;SDS011;12945;42.648;23.370;2022-07-12T09:22:50;6.03;;;1.20;;
24873;SDS011;12945;42.648;23.370;2022-07-12T09:25:16;4.22;;;1.38;;
24873;SDS011;12945;42.648;23.370;2022-07-12T09:27:48;4.20;;;1.38;;
24873;SDS011;12945;42.648;23.370;2022-07-12T09:30:15;7.25;;;1.40;;
24873;SDS011;12945;42.648;23.370;2022-07-12T09:32:48;4.32;;;1.38;;
24873;SDS011;12945;42.648;23.370;2022-07-12T09:35:32;4.15;;;1.25;;
24873;SDS011;12945;42.648;23.370;2022-07-12T09:38:16;2.45;;;1.08;;
24873;SDS011;12945;42.648;23.370;2022-07-12T09:40:42;5.55;;;1.20;;
24873;SDS011;12945;42.648;23.370;2022-07-12T09:43:07;5.22;;;1.20;;
24873;SDS011;12945;42.648;23.370;2022-07-12T09:45:34;4.43;;;1.30;;
24873;SDS011;12945;42.648;23.370;2022-07-12T09:47:59;4.00;;;1.23;;
24873;SDS011;12945;42.648;23.370;2022-07-12T09:50:25;3.15;;;1.10;;
24873;SDS011;12945;42.648;23.370;2022-07-12T09:52:51;3.17;;;1.00;;
24873;SDS011;12945;42.648;23.370;2022-07-12T09:55:19;3.47;;;1.17;;
24873;SDS011;12945;42.648;23.370;2022-07-12T09:57:49;4.72;;;1.30;;
24873;SDS011;12945;42.648;23.370;2022-07-12T10:00:19;4.47;;;1.13;;
24873;SDS011;12945;42.648;23.370;2022-07-12T10:02:45;5.68;;;1.23;;
24873;SDS011;12945;42.648;23.370;2022-07-12T10:05:11;6.43;;;1.30;;
24873;SDS011;12945;42.648;23.370;2022-07-12T10:07:37;6.40;;;1.15;;
24873;SDS011;12945;42.648;23.370;2022-07-12T10:10:03;4.60;;;1.15;;
24873;SDS011;12945;42.648;23.370;2022-07-12T10:12:28;7.10;;;1.50;;
24873;SDS011;12945;42.648;23.370;2022-07-12T10:14:59;2.80;;;1.10;;
24873;SDS011;12945;42.648;23.370;2022-07-12T10:17:25;4.75;;;1.35;;
24873;SDS011;12945;42.648;23.370;2022-07-12T10:20:12;7.60;;;2.10;;
24873;SDS011;12945;42.648;23.370;2022-07-12T10:22:36;5.85;;;1.40;;
24873;SDS011;12945;42.648;23.370;2022-07-12T10:25:01;4.57;;;1.20;;
24873;SDS011;12945;42.648;23.370;2022-07-12T10:27:28;6.47;;;1.05;;
24873;SDS011;12945;42.648;23.370;2022-07-12T10:29:55;4.80;;;1.02;;
24873;SDS011;12945;42.648;23.370;2022-07-12T10:32:36;4.22;;;0.77;;
24873;SDS011;12945;42.648;23.370;2022-07-12T10:35:06;2.80;;;1.00;;
24873;SDS011;12945;42.648;23.370;2022-07-12T10:37:36;3.40;;;1.38;;
24873;SDS011;12945;42.648;23.370;2022-07-12T10:40:11;8.93;;;0.90;;
24873;SDS011;12945;42.648;23.370;2022-07-12T10:42:37;4.63;;;1.13;;
24873;SDS011;12945;42.648;23.370;2022-07-12T10:45:13;5.38;;;0.90;;
24873;SDS011;12945;42.648;23.370;2022-07-12T10:47:58;5.95;;;1.52;;
24873;SDS011;12945;42.648;23.370;2022-07-12T10:58:23;4.80;;;1.33;;
24873;SDS011;12945;42.648;23.370;2022-07-12T11:00:53;3.50;;;1.00;;
24873;SDS011;12945;42.648;23.370;2022-07-12T11:03:20;5.25;;;1.70;;
24873;SDS011;12945;42.648;23.370;2022-07-12T11:05:46;6.18;;;1.23;;
24873;SDS011;12945;42.648;23.370;2022-07-12T11:08:14;5.38;;;1.13;;
24873;SDS011;12945;42.648;23.370;2022-07-12T11:10:40;4.25;;;1.30;;
24873;SDS011;12945;42.648;23.370;2022-07-12T11:13:21;4.20;;;1.05;;
24873;SDS011;12945;42.648;23.370;2022-07-12T11:15:59;2.67;;;1.02;;
24873;SDS011;12945;42.648;23.370;2022-07-12T11:18:28;2.70;;;1.15;;
24873;SDS011;12945;42.648;23.370;2022-07-12T11:21:00;2.42;;;1.00;;
24873;SDS011;12945;42.648;23.370;2022-07-12T11:23:25;2.22;;;0.93;;
24873;SDS011;12945;42.648;23.370;2022-07-12T11:25:56;3.88;;;1.40;;
24873;SDS011;12945;42.648;23.370;2022-07-12T11:28:26;6.00;;;1.40;;
24873;SDS011;12945;42.648;23.370;2022-07-12T11:30:53;7.57;;;1.27;;
24873;SDS011;12945;42.648;23.370;2022-07-12T11:33:21;5.10;;;1.30;;
24873;SDS011;12945;42.648;23.370;2022-07-12T11:35:49;3.63;;;1.20;;
24873;SDS011;12945;42.648;23.370;2022-07-12T11:38:16;5.97;;;1.10;;
24873;SDS011;12945;42.648;23.370;2022-07-12T11:40:48;4.45;;;1.00;;
24873;SDS011;12945;42.648;23.370;2022-07-12T11:43:19;2.35;;;1.27;;
24873;SDS011;12945;42.648;23.370;2022-07-12T11:45:45;2.72;;;1.20;;
24873;SDS011;12945;42.648;23.370;2022-07-12T11:48:11;2.25;;;1.08;;
24873;SDS011;12945;42.648;23.370;2022-07-12T11:50:36;5.30;;;1.30;;
24873;SDS011;12945;42.648;23.370;2022-07-12T11:53:03;2.00;;;1.15;;
24873;SDS011;12945;42.648;23.370;2022-07-12T11:55:28;4.88;;;1.23;;
24873;SDS011;12945;42.648;23.370;2022-07-12T11:58:04;2.40;;;1.00;;
24873;SDS011;12945;42.648;23.370;2022-07-12T12:00:29;5.78;;;1.80;;
24873;SDS011;12945;42.648;23.370;2022-07-12T12:02:54;2.15;;;1.20;;
24873;SDS011;12945;42.648;23.370;2022-07-12T12:05:20;3.70;;;1.35;;
24873;SDS011;12945;42.648;23.370;2022-07-12T12:07:46;2.03;;;1.00;;
24873;SDS011;12945;42.648;23.370;2022-07-12T12:12:42;2.90;;;0.88;;
24873;SDS011;12945;42.648;23.370;2022-07-12T12:15:09;5.15;;;1.08;;
24873;SDS011;12945;42.648;23.370;2022-07-12T12:17:35;3.92;;;1.30;;
24873;SDS011;12945;42.648;23.370;2022-07-12T12:20:08;3.47;;;1.20;;
24873;SDS011;12945;42.648;23.370;2022-07-12T12:22:33;6.07;;;1.00;;
24873;SDS011;12945;42.648;23.370;2022-07-12T12:24:59;1.90;;;1.00;;
24873;SDS011;12945;42.648;23.370;2022-07-12T12:27:25;4.78;;;1.40;;
24873;SDS011;12945;42.648;23.370;2022-07-12T12:29:50;4.68;;;1.40;;
24873;SDS011;12945;42.648;23.370;2022-07-12T12:32:19;8.50;;;1.35;;
24873;SDS011;12945;42.648;23.370;2022-07-12T12:37:29;10.00;;;1.40;;
24873;SDS011;12945;42.648;23.370;2022-07-12T12:39:54;3.15;;;1.13;;
24873;SDS011;12945;42.648;23.370;2022-07-12T12:42:25;3.03;;;1.00;;
24873;SDS011;12945;42.648;23.370;2022-07-12T12:44:51;3.38;;;1.00;;
24873;SDS011;12945;42.648;23.370;2022-07-12T12:47:16;4.85;;;1.20;;
24873;SDS011;12945;42.648;23.370;2022-07-12T12:49:57;5.25;;;1.17;;
24873;SDS011;12945;42.648;23.370;2022-07-12T12:52:23;3.75;;;1.20;;
24873;SDS011;12945;42.648;23.370;2022-07-12T12:54:48;5.20;;;1.13;;
24873;SDS011;12945;42.648;23.370;2022-07-12T12:57:14;4.18;;;1.10;;
24873;SDS011;12945;42.648;23.370;2022-07-12T12:59:39;1.85;;;0.90;;
24873;SDS011;12945;42.648;23.370;2022-07-12T13:02:05;3.42;;;1.05;;
24873;SDS011;12945;42.648;23.370;2022-07-12T13:04:31;5.35;;;1.08;;
24873;SDS011;12945;42.648;23.370;2022-07-12T13:06:57;5.55;;;1.33;;
24873;SDS011;12945;42.648;23.370;2022-07-12T13:09:22;2.40;;;1.25;;
24873;SDS011;12945;42.648;23.370;2022-07-12T13:11:51;1.80;;;0.93;;
24873;SDS011;12945;42.648;23.370;2022-07-12T13:14:16;3.05;;;1.10;;
24873;SDS011;12945;42.648;23.370;2022-07-12T13:16:42;1.92;;;0.95;;
24873;SDS011;12945;42.648;23.370;2022-07-12T13:19:07;2.97;;;1.27;;
24873;SDS011;12945;42.648;23.370;2022-07-12T13:21:33;3.03;;;1.00;;
24873;SDS011;12945;42.648;23.370;2022-07-12T13:23:58;4.57;;;1.00;;
24873;SDS011;12945;42.648;23.370;2022-07-12T13:26:24;2.90;;;1.00;;
24873;SDS011;12945;42.648;23.370;2022-07-12T13:28:49;5.50;;;1.20;;
24873;SDS011;12945;42.648;23.370;2022-07-12T13:31:15;3.50;;;1.13;;
24873;SDS011;12945;42.648;23.370;2022-07-12T13:33:41;3.85;;;1.27;;
24873;SDS011;12945;42.648;23.370;2022-07-12T13:36:06;6.78;;;1.05;;
24873;SDS011;12945;42.648;23.370;2022-07-12T13:38:31;4.18;;;1.33;;
24873;SDS011;12945;42.648;23.370;2022-07-12T13:40:57;11.55;;;1.80;;
24873;SDS011;12945;42.648;23.370;2022-07-12T13:43:23;3.75;;;1.30;;
24873;SDS011;12945;42.648;23.370;2022-07-12T13:45:51;6.18;;;1.60;;
24873;SDS011;12945;42.648;23.370;2022-07-12T13:48:16;4.00;;;1.20;;
24873;SDS011;12945;42.648;23.370;2022-07-12T13:50:43;4.75;;;1.30;;
24873;SDS011;12945;42.648;23.370;2022-07-12T13:53:08;5.07;;;1.30;;
24873;SDS011;12945;42.648;23.370;2022-07-12T13:55:34;4.88;;;1.33;;
24873;SDS011;12945;42.648;23.370;2022-07-12T13:57:59;6.85;;;1.30;;
24873;SDS011;12945;42.648;23.370;2022-07-12T14:00:25;5.43;;;1.20;;
24873;SDS011;12945;42.648;23.370;2022-07-12T14:02:50;2.92;;;1.13;;
24873;SDS011;12945;42.648;23.370;2022-07-12T14:05:16;4.70;;;1.20;;
24873;SDS011;12945;42.648;23.370;2022-07-12T14:07:42;8.10;;;1.20;;
24873;SDS011;12945;42.648;23.370;2022-07-12T14:10:08;1.88;;;1.00;;
24873;SDS011;12945;42.648;23.370;2022-07-12T14:12:36;2.60;;;1.20;;
24873;SDS011;12945;42.648;23.370;2022-07-12T14:15:02;7.53;;;1.35;;
24873;SDS011;12945;42.648;23.370;2022-07-12T14:17:37;4.25;;;1.10;;
24873;SDS011;12945;42.648;23.370;2022-07-12T14:20:03;2.50;;;1.10;;
24873;SDS011;12945;42.648;23.370;2022-07-12T14:22:28;3.60;;;1.35;;
24873;SDS011;12945;42.648;23.370;2022-07-12T14:24:54;4.60;;;1.02;;
24873;SDS011;12945;42.648;23.370;2022-07-12T14:27:19;5.03;;;1.30;;
24873;SDS011;12945;42.648;23.370;2022-07-12T14:29:45;2.75;;;1.33;;
24873;SDS011;12945;42.648;23.370;2022-07-12T14:32:10;3.53;;;1.30;;
24873;SDS011;12945;42.648;23.370;2022-07-12T14:34:36;4.38;;;1.42;;
24873;SDS011;12945;42.648;23.370;2022-07-12T14:37:01;3.63;;;1.00;;
24873;SDS011;12945;42.648;23.370;2022-07-12T14:39:26;3.50;;;1.17;;